Time;durP1;ratioP1;P1;durP2;ratioP2;P2;SDS_P1;SDS_P2;PMS_P1;PMS_P2;Temp;Humidity;BMP_temperature;BMP_pressure;BME280_temperature;BME280_humidity;BME280_pressure;Samples;Min_cycle;Max_cycle;Signal;HPM_P1;HPM_P2
2023/04/18 00:01:51;;;;;;;18.30;10.40;;;;;;;7.31;100.00;101513.33;218031;1288;139250;-91
2023/04/18 00:06:51;;;;;;;20.40;10.80;;;;;;;7.31;100.00;101512.23;218411;1288;139194;-91
2023/04/18 00:11:52;;;;;;;16.90;9.90;;;;;;;7.31;100.00;101510.97;218099;1288;139485;-90
2023/04/18 00:16:52;;;;;;;24.90;12.40;;;;;;;7.30;100.00;101505.80;218356;1288;138944;-91
2023/04/18 00:21:53;;;;;;;28.30;13.60;;;;;;;7.32;100.00;101507.89;217740;1288;139875;-90
2023/04/18 00:26:54;;;;;;;17.80;10.40;;;;;;;7.33;100.00;101506.20;218587;1288;139167;-92
2023/04/18 00:31:54;;;;;;;20.20;10.60;;;;;;;7.33;100.00;101505.20;217987;1288;139258;-92
2023/04/18 00:36:55;;;;;;;19.50;10.60;;;;;;;7.33;100.00;101500.73;218548;1288;139132;-90
2023/04/18 00:41:55;;;;;;;20.30;10.10;;;;;;;7.31;100.00;101502.85;217960;1287;139456;-91
2023/04/18 00:46:56;;;;;;;19.40;11.10;;;;;;;7.31;100.00;101495.89;218393;1287;139002;-91
2023/04/18 00:51:58;;;;;;;23.40;11.80;;;;;;;7.30;100.00;101494.36;218023;1288;142832;-91
2023/04/18 00:56:58;;;;;;;19.20;11.90;;;;;;;7.29;100.00;101494.63;218366;1289;139182;-91
2023/04/18 01:01:59;;;;;;;20.40;12.00;;;;;;;7.27;100.00;101498.80;218048;1288;139906;-90
2023/04/18 01:07:02;;;;;;;19.30;11.90;;;;;;;7.29;100.00;101499.77;218397;1288;140235;-90
2023/04/18 01:12:03;;;;;;;22.50;12.00;;;;;;;7.29;100.00;101497.07;217977;1288;139541;-90
2023/04/18 01:17:03;;;;;;;21.70;11.30;;;;;;;7.30;100.00;101499.35;218414;1288;139031;-90
2023/04/18 01:22:05;;;;;;;21.50;11.60;;;;;;;7.28;100.00;101501.65;218007;1288;139493;-90
2023/04/18 01:27:06;;;;;;;19.00;11.40;;;;;;;7.29;100.00;101499.77;218482;1287;139033;-89
2023/04/18 01:32:06;;;;;;;20.50;12.20;;;;;;;7.28;100.00;101495.63;218058;1288;140166;-91
2023/04/18 01:37:07;;;;;;;23.50;12.40;;;;;;;7.28;100.00;101495.60;218356;1288;138994;-91
2023/04/18 01:42:07;;;;;;;23.40;12.50;;;;;;;7.27;100.00;101497.30;217869;1288;140853;-91
2023/04/18 01:47:08;;;;;;;21.70;13.40;;;;;;;7.30;100.00;101502.33;218371;1288;139934;-90
2023/04/18 01:52:08;;;;;;;23.00;12.20;;;;;;;7.30;100.00;101497.55;217865;1288;139819;-89
2023/04/18 01:57:09;;;;;;;23.40;13.00;;;;;;;7.30;100.00;101496.84;218496;1287;139026;-91
2023/04/18 02:02:10;;;;;;;19.60;11.60;;;;;;;7.30;100.00;101496.70;218090;1288;139181;-90
2023/04/18 02:07:10;;;;;;;20.10;12.30;;;;;;;7.32;100.00;101495.44;218310;1288;139841;-89
2023/04/18 02:12:11;;;;;;;24.40;13.90;;;;;;;7.33;100.00;101498.23;218075;1288;139624;-89
2023/04/18 02:17:11;;;;;;;23.30;13.60;;;;;;;7.34;100.00;101497.59;218554;1288;140354;-89
2023/04/18 02:22:12;;;;;;;26.20;13.20;;;;;;;7.36;100.00;101497.25;217913;1288;139741;-90
2023/04/18 02:27:12;;;;;;;21.00;13.40;;;;;;;7.36;100.00;101498.77;218648;1287;139075;-91
2023/04/18 02:32:13;;;;;;;27.50;15.70;;;;;;;7.37;100.00;101494.55;217968;1287;139694;-91
2023/04/18 02:37:13;;;;;;;23.60;13.70;;;;;;;7.37;100.00;101490.37;218464;1290;138968;-91
2023/04/18 02:42:14;;;;;;;23.90;13.90;;;;;;;7.38;100.00;101494.63;218023;1290;139113;-91
2023/04/18 02:47:14;;;;;;;24.60;14.50;;;;;;;7.39;100.00;101493.06;218623;1288;139641;-91
2023/04/18 02:52:15;;;;;;;26.20;14.50;;;;;;;7.37;100.00;101496.84;218111;1288;139325;-91
2023/04/18 02:57:15;;;;;;;26.40;15.70;;;;;;;7.36;100.00;101495.47;218530;1288;139839;-90
2023/04/18 03:02:16;;;;;;;22.80;13.60;;;;;;;7.34;100.00;101495.40;218083;1287;139442;-89
2023/04/18 03:07:16;;;;;;;23.90;13.90;;;;;;;7.32;100.00;101495.30;218568;1288;139690;-91
2023/04/18 03:12:17;;;;;;;24.20;14.40;;;;;;;7.31;100.00;101499.56;217989;1287;139011;-89
2023/04/18 03:17:17;;;;;;;25.30;14.40;;;;;;;7.30;100.00;101495.77;218591;1287;138805;-88
2023/04/18 03:22:18;;;;;;;26.00;15.10;;;;;;;7.30;100.00;101496.95;217824;1288;139688;-89
2023/04/18 03:27:18;;;;;;;24.80;14.60;;;;;;;7.30;100.00;101498.14;218629;1288;139357;-90
2023/04/18 03:32:19;;;;;;;25.10;14.20;;;;;;;7.30;100.00;101501.02;217957;1288;139699;-91
2023/04/18 03:37:19;;;;;;;21.80;13.10;;;;;;;7.29;100.00;101500.71;218360;1288;139059;-90
2023/04/18 03:42:19;;;;;;;26.40;14.00;;;;;;;7.27;100.00;101502.13;218114;1288;138787;-90
2023/04/18 03:47:20;;;;;;;27.50;15.80;;;;;;;7.27;100.00;101505.36;218519;1288;139727;-90
2023/04/18 03:52:20;;;;;;;28.20;15.10;;;;;;;7.27;100.00;101507.17;217910;1288;138884;-89
2023/04/18 03:57:21;;;;;;;27.80;15.60;;;;;;;7.28;100.00;101503.13;218635;1288;139031;-90
2023/04/18 04:02:21;;;;;;;24.90;14.80;;;;;;;7.30;100.00;101506.56;217912;1287;139011;-89
2023/04/18 04:07:22;;;;;;;23.80;14.20;;;;;;;7.33;100.00;101502.91;218604;1288;139197;-91
2023/04/18 04:12:22;;;;;;;24.20;14.80;;;;;;;7.35;100.00;101506.77;218195;1288;139120;-91
2023/04/18 04:17:23;;;;;;;25.90;14.60;;;;;;;7.38;100.00;101507.27;218358;1288;369974;-91
2023/04/18 04:22:23;;;;;;;24.80;14.40;;;;;;;7.39;100.00;101510.39;218050;1288;140551;-90
2023/04/18 04:27:25;;;;;;;22.70;14.00;;;;;;;7.43;100.00;101513.50;218429;1288;139361;-91
2023/04/18 04:32:27;;;;;;;25.90;14.10;;;;;;;7.47;100.00;101516.90;218035;1288;140108;-91
2023/04/18 04:37:27;;;;;;;24.40;13.80;;;;;;;7.51;100.00;101513.30;218363;1288;139919;-91
2023/04/18 04:42:28;;;;;;;23.40;13.60;;;;;;;7.55;100.00;101521.75;218254;1288;138670;-90
2023/04/18 04:47:28;;;;;;;26.00;14.20;;;;;;;7.60;100.00;101520.92;218521;1288;139576;-91
2023/04/18 04:52:31;;;;;;;26.70;14.00;;;;;;;7.65;100.00;101522.09;217868;1288;139601;-90
2023/04/18 04:57:31;;;;;;;25.80;15.40;;;;;;;7.71;100.00;101523.58;218517;1289;139608;-89
2023/04/18 05:02:32;;;;;;;25.00;15.20;;;;;;;7.75;100.00;101527.25;217872;1288;139326;-91
2023/04/18 05:07:32;;;;;;;24.30;14.50;;;;;;;7.77;100.00;101526.89;218247;1287;139239;-89
2023/04/18 05:12:33;;;;;;;24.00;14.30;;;;;;;7.84;100.00;101531.52;217961;1288;141985;-88
2023/04/18 05:17:33;;;;;;;24.80;14.40;;;;;;;7.89;100.00;101531.59;218496;1288;138951;-89
2023/04/18 05:22:34;;;;;;;22.20;13.40;;;;;;;7.94;100.00;101536.48;218004;1288;139374;-89
2023/04/18 05:27:35;;;;;;;24.90;13.90;;;;;;;8.01;100.00;101536.21;218370;1288;139254;-88
2023/04/18 05:32:37;;;;;;;25.40;14.30;;;;;;;8.07;100.00;101535.53;217843;1288;139427;-86
2023/04/18 05:37:38;;;;;;;24.10;13.60;;;;;;;8.14;100.00;101540.32;218533;1288;139414;-87
2023/04/18 05:42:38;;;;;;;22.70;13.50;;;;;;;8.19;100.00;101540.73;218124;1288;139178;-87
2023/04/18 05:47:39;;;;;;;26.10;14.00;;;;;;;8.22;100.00;101538.92;218312;1291;139121;-86
2023/04/18 05:52:39;;;;;;;24.40;13.60;;;;;;;8.29;100.00;101541.23;217992;1288;139902;-87
2023/04/18 05:57:40;;;;;;;24.70;14.20;;;;;;;8.35;100.00;101543.21;218463;1291;139720;-88
2023/04/18 06:02:40;;;;;;;24.10;13.70;;;;;;;8.45;100.00;101542.32;217917;1291;139473;-86
2023/04/18 06:07:41;;;;;;;26.10;15.10;;;;;;;8.57;100.00;101544.89;218564;1288;139188;-87
2023/04/18 06:12:41;;;;;;;24.50;14.80;;;;;;;8.73;100.00;101540.84;218147;1288;139013;-86
2023/04/18 06:17:42;;;;;;;25.10;14.60;;;;;;;8.97;100.00;101544.70;218563;1288;140374;-87
2023/04/18 06:22:42;;;;;;;22.80;13.80;;;;;;;9.19;100.00;101547.18;217947;1288;139505;-87
2023/04/18 06:27:42;;;;;;;24.20;14.20;;;;;;;9.38;100.00;101548.91;218676;1287;139036;-86
2023/04/18 06:32:43;;;;;;;25.70;14.80;;;;;;;9.66;100.00;101554.35;217852;1288;140342;-87
2023/04/18 06:37:44;;;;;;;23.40;13.80;;;;;;;9.84;100.00;101554.61;218533;1288;140053;-86
2023/04/18 06:42:44;;;;;;;26.60;14.90;;;;;;;9.92;100.00;101557.09;218130;1287;140062;-87
2023/04/18 06:47:46;;;;;;;23.00;13.50;;;;;;;10.03;100.00;101564.05;218555;1288;140868;-86
2023/04/18 06:52:47;;;;;;;22.00;12.50;;;;;;;10.17;100.00;101567.55;217962;1288;139825;-88
2023/04/18 06:57:47;;;;;;;24.30;13.60;;;;;;;10.29;100.00;101567.63;218489;1288;139381;-86
2023/04/18 07:02:47;;;;;;;22.10;13.50;;;;;;;10.40;100.00;101570.23;217734;1288;140326;-87
2023/04/18 07:07:48;;;;;;;24.00;14.00;;;;;;;10.41;100.00;101570.42;218293;1289;139564;-87
2023/04/18 07:12:48;;;;;;;22.50;13.30;;;;;;;10.40;100.00;101568.41;218018;1289;139751;-89
2023/04/18 07:17:49;;;;;;;25.90;14.60;;;;;;;10.44;100.00;101573.23;218578;1289;96379;-88
2023/04/18 07:22:49;;;;;;;23.70;14.50;;;;;;;10.46;100.00;101582.52;218130;1288;139720;-86
2023/04/18 07:27:49;;;;;;;24.50;14.30;;;;;;;10.49;100.00;101580.98;218479;1288;139417;-87
2023/04/18 07:32:50;;;;;;;23.10;14.30;;;;;;;10.56;100.00;101590.45;218027;1287;139968;-87
2023/04/18 07:37:52;;;;;;;24.50;13.60;;;;;;;10.62;100.00;101590.16;218605;1288;139380;-88
2023/04/18 07:42:53;;;;;;;25.90;13.90;;;;;;;10.67;100.00;101587.31;218009;1289;140585;-87
2023/04/18 07:47:53;;;;;;;25.80;14.70;;;;;;;10.75;100.00;101592.11;218495;1288;96683;-86
2023/04/18 07:52:53;;;;;;;23.40;14.90;;;;;;;10.88;100.00;101595.23;218011;1288;139362;-88
2023/04/18 07:57:54;;;;;;;23.60;15.00;;;;;;;10.97;100.00;101593.44;218187;1288;139749;-87
2023/04/18 08:02:54;;;;;;;22.80;13.20;;;;;;;11.12;100.00;101599.92;217839;1289;140440;-88
2023/04/18 08:07:54;;;;;;;23.50;13.70;;;;;;;11.27;99.92;101597.97;218225;1288;140642;-87
2023/04/18 08:12:55;;;;;;;25.30;14.90;;;;;;;11.36;99.59;101600.34;217920;1287;139534;-87
2023/04/18 08:17:55;;;;;;;21.00;13.90;;;;;;;11.50;98.98;101599.91;218734;1289;95948;-87
2023/04/18 08:22:56;;;;;;;25.30;14.80;;;;;;;11.65;98.52;101600.34;217884;1290;139098;-87
2023/04/18 08:27:56;;;;;;;21.90;13.30;;;;;;;11.87;97.64;101603.98;218361;1291;139697;-88
2023/04/18 08:32:58;;;;;;;35.30;23.60;;;;;;;12.04;97.09;101606.83;217971;1291;139769;-90
2023/04/18 08:38:01;;;;;;;24.70;14.00;;;;;;;12.20;95.67;101604.13;218354;1288;139196;-87
2023/04/18 08:43:08;;;;;;;22.10;13.60;;;;;;;12.33;94.67;101606.17;217705;1288;140420;-90
2023/04/18 08:48:15;;;;;;;23.70;14.50;;;;;;;12.42;94.97;101608.67;218468;1288;106085;-89
2023/04/18 08:53:17;;;;;;;23.30;13.60;;;;;;;12.65;93.63;101609.08;217843;1288;140511;-89
2023/04/18 08:58:21;;;;;;;21.40;13.20;;;;;;;12.90;94.78;101610.26;218524;1288;138978;-89
2023/04/18 09:03:39;;;;;;;20.00;13.80;;;;;;;13.21;94.24;101609.41;217902;1289;140566;-88
2023/04/18 09:08:42;;;;;;;20.10;12.50;;;;;;;13.45;91.72;101614.35;218391;1291;139309;-89
2023/04/18 09:13:45;;;;;;;20.20;11.90;;;;;;;13.54;91.07;101620.28;218096;1288;139319;-87
2023/04/18 09:19:12;;;;;;;18.70;12.10;;;;;;;13.53;88.55;101623.52;218580;1288;96202;-90
2023/04/18 09:24:25;;;;;;;18.00;11.50;;;;;;;13.55;90.01;101619.45;218110;1289;138599;-88
2023/04/18 09:29:48;;;;;;;21.90;12.60;;;;;;;13.67;88.23;101621.79;217725;1289;139563;-91
2023/04/18 09:34:48;;;;;;;20.80;12.80;;;;;;;13.67;86.34;101621.80;218373;1288;139361;-90
2023/04/18 09:39:49;;;;;;;17.90;11.20;;;;;;;13.74;86.94;101616.77;217846;1289;140308;-89
2023/04/18 09:45:02;;;;;;;18.50;11.20;;;;;;;13.93;87.47;101619.46;218472;1288;139706;-90
2023/04/18 09:50:04;;;;;;;18.90;12.20;;;;;;;14.19;88.48;101617.54;217734;1288;139273;-88
2023/04/18 09:55:08;;;;;;;21.80;12.50;;;;;;;14.39;88.05;101619.11;218247;1289;139159;-89
2023/04/18 10:00:26;;;;;;;21.40;12.60;;;;;;;14.46;87.37;101614.05;217983;1288;139158;-89
2023/04/18 10:05:30;;;;;;;18.20;11.30;;;;;;;14.50;86.48;101606.77;218210;1289;139541;-91
2023/04/18 10:10:33;;;;;;;22.10;14.00;;;;;;;14.55;85.63;101609.14;217874;1289;140114;-90
2023/04/18 10:15:33;;;;;;;22.60;13.00;;;;;;;14.58;84.66;101606.48;218362;1288;140237;-88
2023/04/18 10:20:34;;;;;;;26.30;13.80;;;;;;;14.64;85.58;101608.38;217916;1288;139728;-88
2023/04/18 10:26:09;;;;;;;25.10;14.40;;;;;;;14.76;85.45;101603.55;218357;1289;139908;-87
2023/04/18 10:31:10;;;;;;;27.20;13.40;;;;;;;14.85;85.02;101603.17;217404;1288;139831;-88
2023/04/18 10:36:15;;;;;;;20.00;13.10;;;;;;;15.14;86.37;101597.98;218499;1289;96494;-89
2023/04/18 10:41:21;;;;;;;25.70;14.50;;;;;;;15.37;84.32;101597.95;217683;1289;139829;-87
2023/04/18 10:46:21;;;;;;;19.80;11.30;;;;;;;15.36;81.69;101596.98;218428;1289;139045;-89
2023/04/18 10:51:22;;;;;;;17.20;11.70;;;;;;;15.42;82.52;101594.67;217974;1288;139739;-91
2023/04/18 10:56:24;;;;;;;22.50;13.20;;;;;;;15.58;81.38;101593.55;218554;1289;138611;-90
2023/04/18 11:01:27;;;;;;;20.40;11.20;;;;;;;15.71;82.00;101587.65;217940;1288;139750;-91
2023/04/18 11:06:27;;;;;;;18.60;11.80;;;;;;;16.01;82.77;101589.87;218566;1287;96191;-89
2023/04/18 11:11:28;;;;;;;17.60;11.20;;;;;;;16.22;80.92;101583.76;217716;1289;142044;-91
2023/04/18 11:16:30;;;;;;;17.30;11.40;;;;;;;16.32;79.98;101585.55;218325;1292;140167;-91
2023/04/18 11:21:30;;;;;;;18.70;12.50;;;;;;;16.35;78.77;101589.24;217916;1289;140986;-91
2023/04/18 11:26:31;;;;;;;20.00;12.50;;;;;;;16.23;78.42;101586.77;218497;1289;139681;-90
2023/04/18 11:31:31;;;;;;;16.90;11.50;;;;;;;16.18;78.52;101588.42;217729;1289;139566;-91
2023/04/18 11:36:34;;;;;;;18.30;12.30;;;;;;;16.09;78.14;101586.29;218547;1288;96283;-91
2023/04/18 11:41:35;;;;;;;19.90;12.30;;;;;;;15.94;79.07;101589.19;217792;1288;139217;-91
2023/04/18 11:46:38;;;;;;;19.40;11.90;;;;;;;16.05;79.72;101586.34;218511;1288;139434;-91
2023/04/18 11:51:42;;;;;;;19.30;12.00;;;;;;;16.17;79.35;101579.03;217861;1289;139823;-91
2023/04/18 11:56:48;;;;;;;22.30;13.10;;;;;;;16.00;77.50;101579.16;218365;1289;139866;-90
2023/04/18 12:02:03;;;;;;;19.10;11.70;;;;;;;15.93;78.02;101578.30;217975;1289;140163;-91
2023/04/18 12:07:03;;;;;;;20.20;12.70;;;;;;;15.78;77.79;101575.58;218361;1289;142188;-90
2023/04/18 12:12:05;;;;;;;19.60;12.20;;;;;;;15.70;77.51;101567.73;218028;1288;140198;-90
2023/04/18 12:17:05;;;;;;;18.90;11.10;;;;;;;15.71;76.96;101570.36;218362;1288;139049;-91
2023/04/18 12:22:06;;;;;;;20.00;10.70;;;;;;;15.70;77.28;101567.73;217746;1289;139896;-90
2023/04/18 12:27:07;;;;;;;17.80;11.40;;;;;;;15.76;78.29;101559.69;218532;1288;139198;-88
2023/04/18 12:32:07;;;;;;;22.00;13.40;;;;;;;15.94;78.96;101558.55;217914;1289;139384;-90
2023/04/18 12:37:08;;;;;;;22.20;13.50;;;;;;;16.04;79.20;101554.83;218608;1288;139118;-89
2023/04/18 12:42:09;;;;;;;19.20;11.90;;;;;;;16.28;79.65;101550.77;218039;1288;142474;-90
2023/04/18 12:47:10;;;;;;;19.10;11.40;;;;;;;16.45;79.12;101547.31;218516;1288;139002;-90
2023/04/18 12:52:10;;;;;;;18.10;11.70;;;;;;;16.57;78.24;101552.15;218018;1288;139386;-89
2023/04/18 12:57:10;;;;;;;19.80;11.70;;;;;;;16.49;77.49;101551.48;218420;1288;139186;-89
2023/04/18 13:02:11;;;;;;;18.50;11.40;;;;;;;16.50;77.10;101545.52;217963;1288;140659;-89
2023/04/18 13:07:11;;;;;;;18.70;11.00;;;;;;;16.60;77.20;101539.84;218534;1288;139419;-91
2023/04/18 13:12:12;;;;;;;18.30;11.10;;;;;;;16.75;76.17;101539.35;218067;1289;139924;-89
2023/04/18 13:17:12;;;;;;;17.30;10.90;;;;;;;16.84;76.14;101535.65;218516;1288;139488;-90
2023/04/18 13:22:12;;;;;;;15.50;10.60;;;;;;;16.93;73.09;101532.89;217878;1288;139780;-89
2023/04/18 13:27:13;;;;;;;16.70;10.90;;;;;;;16.99;74.60;101527.03;218599;1287;139536;-90
2023/04/18 13:32:14;;;;;;;14.60;9.50;;;;;;;17.26;75.19;101523.58;217783;1288;139305;-92
2023/04/18 13:37:15;;;;;;;18.10;10.70;;;;;;;17.34;71.91;101523.05;218487;1288;139750;-90
2023/04/18 13:42:17;;;;;;;15.90;10.10;;;;;;;17.29;73.22;101523.27;217801;1291;139410;-91
2023/04/18 13:47:17;;;;;;;15.70;10.30;;;;;;;17.31;72.25;101525.34;218485;1288;138988;-91
2023/04/18 13:52:18;;;;;;;17.10;10.00;;;;;;;17.43;74.03;101524.27;217956;1289;139345;-92
2023/04/18 13:57:19;;;;;;;17.60;10.30;;;;;;;17.56;73.20;101518.30;218458;1288;139268;-91
2023/04/18 14:02:19;;;;;;;17.50;9.80;;;;;;;17.54;73.02;101519.81;217892;1288;139870;-90
2023/04/18 14:07:19;;;;;;;18.20;10.70;;;;;;;17.51;72.90;101520.70;218297;1288;139042;-91
2023/04/18 14:12:20;;;;;;;18.80;11.80;;;;;;;17.36;70.36;101519.39;217979;1288;139603;-90
2023/04/18 14:17:20;;;;;;;16.60;10.50;;;;;;;17.12;71.61;101522.38;218376;1288;138514;-90
2023/04/18 14:22:21;;;;;;;15.90;10.50;;;;;;;17.10;72.69;101523.80;217936;1288;138647;-90
2023/04/18 14:27:21;;;;;;;17.50;11.30;;;;;;;17.02;72.30;101522.34;218236;1288;140475;-88
2023/04/18 14:32:22;;;;;;;16.30;11.10;;;;;;;16.88;72.17;101517.23;217896;1288;139547;-91
2023/04/18 14:37:22;;;;;;;16.10;10.60;;;;;;;16.84;71.95;101515.31;218402;1288;139340;-91
2023/04/18 14:42:23;;;;;;;15.70;10.40;;;;;;;16.78;73.62;101512.50;217876;1288;140228;-91
2023/04/18 14:47:29;;;;;;;14.40;9.80;;;;;;;16.85;72.82;101514.75;218337;1288;139520;-91
2023/04/18 14:52:30;;;;;;;18.90;10.10;;;;;;;16.75;71.58;101511.08;218032;1287;139406;-91
2023/04/18 14:57:30;;;;;;;15.00;9.60;;;;;;;16.63;71.64;101507.55;218465;1288;139484;-91
2023/04/18 15:02:31;;;;;;;18.70;11.10;;;;;;;16.59;72.18;101506.96;217907;1288;139438;-89
2023/04/18 15:07:32;;;;;;;16.60;9.70;;;;;;;16.54;72.42;101505.13;218393;1288;140002;-92
2023/04/18 15:12:32;;;;;;;13.80;8.40;;;;;;;16.67;73.70;101498.41;217788;1289;139580;-88
2023/04/18 15:17:32;;;;;;;15.00;9.70;;;;;;;16.60;70.21;101507.28;218489;1288;139293;-91
2023/04/18 15:22:34;;;;;;;19.60;10.60;;;;;;;16.44;71.17;101500.23;217977;1288;139392;-91
2023/04/18 15:27:35;;;;;;;16.70;10.90;;;;;;;16.35;70.67;101505.55;218327;1291;139348;-89
2023/04/18 15:32:35;;;;;;;15.80;10.50;;;;;;;16.12;69.66;101499.89;217742;1288;139892;-89
2023/04/18 15:37:36;;;;;;;16.40;10.40;;;;;;;16.02;71.52;101494.60;218426;1288;139226;-91
2023/04/18 15:42:38;;;;;;;16.90;10.00;;;;;;;16.10;72.80;101487.09;217839;1289;140157;-92
2023/04/18 15:47:39;;;;;;;15.80;10.20;;;;;;;16.11;72.38;101488.85;218542;1288;139604;-92
2023/04/18 15:52:42;;;;;;;16.20;10.40;;;;;;;16.03;72.81;101487.94;217938;1288;139204;-89
2023/04/18 15:57:43;;;;;;;15.60;9.60;;;;;;;15.95;72.76;101490.34;218393;1288;139191;-91
2023/04/18 16:02:45;;;;;;;16.50;9.70;;;;;;;15.90;73.10;101490.31;217993;1288;140554;-90
2023/04/18 16:07:45;;;;;;;15.40;9.60;;;;;;;15.93;73.46;101492.40;218200;1291;139301;-91
2023/04/18 16:12:46;;;;;;;13.90;9.50;;;;;;;15.86;72.86;101487.91;217724;1288;139339;-92
2023/04/18 16:17:46;;;;;;;15.80;9.50;;;;;;;15.79;74.08;101482.80;218251;1288;251119;-92
2023/04/18 16:22:47;;;;;;;16.60;10.60;;;;;;;15.80;74.06;101478.90;217715;1288;139870;-91
2023/04/18 16:27:47;;;;;;;15.00;9.80;;;;;;;15.71;73.68;101477.73;218426;1289;139157;-90
2023/04/18 16:32:47;;;;;;;15.30;9.90;;;;;;;15.67;75.11;101474.69;217983;1288;139499;-90
2023/04/18 16:37:48;;;;;;;14.00;8.80;;;;;;;15.64;74.18;101478.23;218446;1288;138999;-91
2023/04/18 16:42:48;;;;;;;14.80;9.90;;;;;;;15.59;75.22;101477.33;217960;1288;139961;-91
2023/04/18 16:47:49;;;;;;;19.40;11.40;;;;;;;15.48;74.43;101476.22;218590;1288;139043;-91
2023/04/18 16:52:49;;;;;;;17.40;10.10;;;;;;;15.37;74.36;101476.19;217620;1288;139486;-91
2023/04/18 16:57:49;;;;;;;14.30;8.60;;;;;;;15.31;75.38;101479.06;218392;1288;139464;-90
2023/04/18 17:02:50;;;;;;;13.80;8.20;;;;;;;15.27;75.07;101479.34;217875;1288;139707;-92
2023/04/18 17:07:51;;;;;;;15.20;8.80;;;;;;;15.20;74.46;101476.67;218389;1288;139791;-91
2023/04/18 17:12:51;;;;;;;15.20;8.80;;;;;;;15.13;75.15;101474.30;217987;1289;139029;-91
2023/04/18 17:17:53;;;;;;;13.70;8.30;;;;;;;15.09;75.68;101473.39;218460;1288;138844;-91
2023/04/18 17:22:54;;;;;;;14.50;8.70;;;;;;;15.02;76.20;101480.77;217832;1291;141264;-91
2023/04/18 17:27:54;;;;;;;15.20;9.10;;;;;;;14.92;76.78;101480.89;218302;1288;139895;-90
2023/04/18 17:32:55;;;;;;;13.60;8.50;;;;;;;14.84;77.29;101482.56;217923;1288;139762;-91
2023/04/18 17:37:55;;;;;;;14.60;8.90;;;;;;;14.73;77.74;101485.22;218488;1287;139215;-90
2023/04/18 17:42:56;;;;;;;13.20;7.90;;;;;;;14.56;77.48;101484.79;217900;1288;139284;-89
2023/04/18 17:47:58;;;;;;;14.50;9.20;;;;;;;14.39;77.63;101487.66;218432;1288;96630;-91
2023/04/18 17:52:58;;;;;;;15.20;9.00;;;;;;;14.23;77.74;101492.52;217677;1288;139302;-91
2023/04/18 17:57:58;;;;;;;12.80;8.00;;;;;;;14.13;78.42;101492.73;218258;1288;139585;-91
2023/04/18 18:03:00;;;;;;;14.30;8.30;;;;;;;13.99;78.12;101494.62;217812;1288;140186;-90
2023/04/18 18:08:00;;;;;;;12.50;7.80;;;;;;;13.88;78.25;101501.56;218335;1288;139685;-92
2023/04/18 18:13:01;;;;;;;14.50;9.00;;;;;;;13.76;78.58;101502.02;217830;1288;139384;-90
2023/04/18 18:18:01;;;;;;;14.50;8.90;;;;;;;13.65;78.77;101504.21;218567;1288;96079;-91
2023/04/18 18:23:02;;;;;;;15.40;8.70;;;;;;;13.55;79.25;101508.23;217744;1288;139627;-89
2023/04/18 18:28:02;;;;;;;14.70;9.50;;;;;;;13.45;79.23;101513.45;218490;1288;139079;-91
2023/04/18 18:33:03;;;;;;;16.00;9.90;;;;;;;13.38;79.52;101513.41;217855;1288;139890;-91
2023/04/18 18:38:04;;;;;;;16.70;9.80;;;;;;;13.29;79.90;101513.27;218560;1288;139137;-91
2023/04/18 18:43:05;;;;;;;14.50;8.50;;;;;;;13.22;80.20;101518.74;218041;1288;139552;-90
2023/04/18 18:48:08;;;;;;;16.40;9.50;;;;;;;13.15;80.17;101519.16;218493;1288;95916;-90
2023/04/18 18:53:09;;;;;;;15.50;9.90;;;;;;;13.08;80.56;101521.95;217985;1287;139113;-90
2023/04/18 18:58:10;;;;;;;18.30;10.50;;;;;;;12.99;81.05;101520.23;218559;1288;139228;-91
2023/04/18 19:03:11;;;;;;;18.00;10.30;;;;;;;12.94;81.69;101518.27;217861;1288;139770;-90
2023/04/18 19:08:12;;;;;;;18.90;10.10;;;;;;;12.84;81.94;101514.61;218341;1287;139139;-89
2023/04/18 19:13:13;;;;;;;17.50;11.50;;;;;;;12.78;82.25;101514.42;217850;1288;139518;-90
2023/04/18 19:18:14;;;;;;;18.70;10.90;;;;;;;12.71;82.53;101516.02;218500;1288;96147;-90
2023/04/18 19:23:15;;;;;;;17.00;9.70;;;;;;;12.64;82.83;101519.17;217971;1288;140143;-88
2023/04/18 19:28:17;;;;;;;19.30;11.10;;;;;;;12.55;83.17;101518.45;218577;1288;139413;-93
2023/04/18 19:33:18;;;;;;;19.80;9.60;;;;;;;12.46;83.56;101520.86;217872;1288;139200;-88
2023/04/18 19:38:19;;;;;;;20.60;11.50;;;;;;;12.33;84.10;101519.16;218492;1288;140027;-90
2023/04/18 19:43:20;;;;;;;18.30;11.10;;;;;;;12.21;84.32;101517.24;217934;1288;139670;-90
2023/04/18 19:48:20;;;;;;;18.70;11.70;;;;;;;12.11;84.59;101517.76;218727;1288;95922;-90
2023/04/18 19:53:22;;;;;;;20.10;11.60;;;;;;;12.02;84.90;101514.77;218075;1288;139752;-90
2023/04/18 19:58:43;;;;;;;20.80;10.60;;;;;;;11.92;85.23;101509.98;218418;1289;139201;-88
2023/04/18 20:03:44;;;;;;;23.20;11.70;;;;;;;11.84;85.80;101508.85;217818;1288;139435;-90
2023/04/18 20:08:45;;;;;;;20.20;10.60;;;;;;;11.77;86.17;101510.96;218510;1288;139611;-88
2023/04/18 20:13:45;;;;;;;17.80;10.70;;;;;;;11.65;86.18;101509.27;217820;1287;140304;-88
2023/04/18 20:18:46;;;;;;;17.50;10.10;;;;;;;11.53;86.36;101508.80;218622;1288;95810;-91
2023/04/18 20:23:46;;;;;;;20.50;11.30;;;;;;;11.42;86.39;101505.90;218035;1288;138720;-90
2023/04/18 20:28:47;;;;;;;21.50;11.70;;;;;;;11.33;86.36;101503.80;218652;1288;139129;-92
2023/04/18 20:33:47;;;;;;;27.70;12.70;;;;;;;11.23;86.74;101498.83;218055;1288;139291;-91
2023/04/18 20:38:49;;;;;;;20.00;10.50;;;;;;;11.17;87.06;101500.64;218596;1287;139209;-88
2023/04/18 20:43:52;;;;;;;16.30;9.80;;;;;;;11.12;87.78;101502.02;218116;1288;139184;-91
2023/04/18 20:48:52;;;;;;;20.60;10.10;;;;;;;11.08;88.28;101503.78;217976;1287;139154;-90
2023/04/18 20:53:53;;;;;;;17.50;10.20;;;;;;;11.05;88.66;101506.31;218607;1288;138951;-90
2023/04/18 20:58:53;;;;;;;17.40;10.80;;;;;;;11.00;89.01;101503.58;217840;1288;139605;-90
2023/04/18 21:03:54;;;;;;;19.30;10.90;;;;;;;10.95;89.43;101495.55;218577;1288;139921;-89
2023/04/18 21:08:54;;;;;;;18.50;11.00;;;;;;;10.89;89.77;101491.55;218026;1288;140550;-88
2023/04/18 21:13:55;;;;;;;17.20;10.60;;;;;;;10.85;90.12;101486.48;218277;1288;139268;-90
2023/04/18 21:18:55;;;;;;;17.50;9.90;;;;;;;10.81;90.45;101483.70;218037;1289;140638;-89
2023/04/18 21:23:56;;;;;;;19.00;10.60;;;;;;;10.75;90.34;101478.36;218750;1288;96193;-90
2023/04/18 21:29:02;;;;;;;17.30;10.10;;;;;;;10.70;90.40;101473.48;218001;1288;139564;-89
2023/04/18 21:34:04;;;;;;;17.50;10.60;;;;;;;10.63;90.67;101468.27;218320;1291;140010;-89
2023/04/18 21:39:04;;;;;;;15.80;10.20;;;;;;;10.57;90.60;101468.48;218054;1288;140891;-90
2023/04/18 21:44:05;;;;;;;19.80;10.40;;;;;;;10.52;90.86;101466.92;218566;1288;140205;-89
2023/04/18 21:49:05;;;;;;;17.50;9.90;;;;;;;10.47;90.91;101468.29;218064;1288;139526;-88
2023/04/18 21:54:06;;;;;;;16.50;10.00;;;;;;;10.41;91.14;101467.34;218662;1288;95961;-90
2023/04/18 21:59:07;;;;;;;17.00;9.50;;;;;;;10.36;91.43;101468.45;218041;1288;139118;-89
2023/04/18 22:04:08;;;;;;;17.20;10.20;;;;;;;10.30;91.03;101463.25;218528;1288;139006;-89
2023/04/18 22:09:10;;;;;;;15.90;8.70;;;;;;;10.21;89.58;101463.70;218012;1288;140657;-88
2023/04/18 22:14:11;;;;;;;11.70;6.40;;;;;;;10.15;87.59;101464.30;218552;1288;140080;-92
2023/04/18 22:19:13;;;;;;;12.30;6.60;;;;;;;10.03;83.22;101462.36;217987;1288;140251;-87